K1UTS Weather Reports


Display with metric or nautical units.
time (UTC)temp
F
wind
direction
speed
MPH
gust
MPH
rain 1hr
in
rain 24hr
in
rain mn
in
humidity
%
barometer
mb
20240229044546 39 152 1.0 5.0 0.03 0.41 0.40 86 1000.2
20240229043044 40 181 1.0 9.0 0.02 0.40 0.39 85 999.5
20240229041541 41 242 3.0 8.0 0.04 0.40 0.39 83 998.7
20240229040041 43 26 0.0 5.0 0.11 0.41 0.38 82 998.1
20240229034532 45 232 2.0 12.0 0.10 0.40 0.37 80 997.5
20240229033028 50 106 3.0 14.0 0.10 0.40 0.37 83 996.9
20240229031528 54 5 3.0 16.0 0.08 0.38 0.35 89 995.8
20240229030033 54 308 3.0 10.0 0.00 0.30 0.27 90 993.9
20240229024524 54 184 4.0 11.0 0.00 0.30 0.27 90 993.5
20240229023030 54 197 2.0 8.0 0.00 0.30 0.27 90 993.7
20240229021531 54 221 4.0 17.0 0.00 0.30 0.27 91 994.0
20240229020022 54 238 3.0 16.0 0.00 0.30 0.27 91 994.4
20240229014529 53 250 2.0 11.0 0.00 0.30 0.27 91 995.0
20240229013020 53 271 4.0 14.0 0.00 0.30 0.27 92 995.1
20240229011526 53 230 3.0 10.0 0.00 0.30 0.27 92 994.7
20240229010019 54 238 4.0 11.0 0.01 0.30 0.27 92 993.7
20240229004516 54 204 5.0 11.0 0.02 0.30 0.27 92 994.3
20240229003020 54 225 6.0 11.0 0.02 0.30 0.27 91 994.5
20240229001511 55 191 2.0 10.0 0.02 0.30 0.27 91 995.5
20240229000009 55 162 3.0 11.0 0.01 0.28 0.26 90 996.1
20240228234508 55 153 4.0 9.0 0.00 0.28 0.25 89 996.0
20240228233011 56 214 3.0 14.0 0.00 0.28 0.25 88 996.2
20240228231516 56 223 6.0 15.0 0.00 0.28 0.25 87 996.3
20240228230003 56 182 3.0 11.0 0.00 0.28 0.25 88 996.8
20240228224508 56 226 3.0 12.0 0.00 0.28 0.25 88 996.8
20240228223001 56 185 2.0 14.0 0.00 0.28 0.25 87 997.0
20240228221606 57 191 2.0 10.0 0.00 0.28 0.25 86 997.2
20240228220108 57 314 2.0 8.0 0.00 0.28 0.25 85 997.2
20240228214600 57 294 2.0 8.0 0.00 0.28 0.25 85 997.0
20240228213114 57 210 2.0 10.0 0.00 0.28 0.25 85 997.0
20240228211556 57 182 3.0 9.0 0.00 0.28 0.25 85 997.0
20240228210101 57 225 2.0 11.0 0.00 0.28 0.25 86 997.5
20240228204553 57 207 2.0 13.0 0.00 0.28 0.25 86 997.7
20240228203051 57 302 3.0 11.0 0.00 0.28 0.25 87 998.2
20240228201550 57 196 2.0 8.0 0.00 0.28 0.25 88 998.1
20240228200053 56 214 5.0 11.0 0.00 0.28 0.25 89 998.4
20240228194549 56 171 3.0 8.0 0.00 0.28 0.25 90 998.4
20240228193051 56 192 2.0 11.0 0.00 0.28 0.25 90 998.7
20240228191547 56 236 2.0 10.0 0.00 0.28 0.25 90 999.3
20240228190050 56 232 3.0 15.0 0.00 0.28 0.25 90 999.7
20240228184539 56 232 4.0 12.0 0.00 0.28 0.25 91 999.9
20240228183037 56 164 3.0 14.0 0.01 0.28 0.25 92 1000.1
20240228181533 56 227 2.0 16.0 0.03 0.28 0.25 93 1000.5
20240228180030 56 201 4.0 10.0 0.03 0.28 0.25 93 1000.9
20240228174538 56 217 1.0 9.0 0.03 0.28 0.25 93 1000.7
20240228173027 55 168 2.0 8.0 0.02 0.27 0.24 93 1000.8
20240228171525 55 163 2.0 7.0 0.00 0.25 0.22 94 1001.1
20240228170022 54 203 2.0 10.0 0.00 0.25 0.22 94 1001.5
20240228164520 54 206 2.0 10.0 0.00 0.25 0.22 94 1001.9
20240228163018 54 209 6.0 12.0 0.00 0.25 0.22 94 1002.0
20240228161518 53 194 3.0 14.0 0.00 0.25 0.22 94 1002.2
20240228160016 53 167 3.0 12.0 0.00 0.25 0.22 95 1002.2
20240228154527 54 216 4.0 9.0 0.00 0.25 0.22 95 1002.3
20240228153012 53 161 3.0 11.0 0.00 0.25 0.22 95 1002.6
20240228151511 53 221 4.0 10.0 0.00 0.25 0.22 95 1003.1
20240228150012 53 212 3.0 13.0 0.00 0.25 0.22 95 1003.3
20240228144505 53 207 2.0 12.0 0.00 0.25 0.22 95 1003.7
20240228143005 53 171 3.0 10.0 0.00 0.25 0.22 95 1004.0
20240228141606 53 163 2.0 11.0 0.00 0.25 0.22 95 1004.3
20240228141501 53 213 3.0 11.0 0.00 0.25 0.22 95 1004.3
20240228140119 52 187 2.0 8.0 0.00 0.25 0.22 94 1004.5
20240228134608 52 205 3.0 10.0 0.01 0.25 0.22 94 1004.6
20240228133058 52 192 3.0 10.0 0.04 0.25 0.22 95 1004.5
20240228131604 52 206 6.0 13.0 0.10 0.25 0.22 94 1004.7
20240228130052 52 189 2.0 10.0 0.17 0.25 0.22 94 1005.0
20240228124550 52 208 4.0 8.0 0.17 0.24 0.21 94 1005.1
20240228123049 52 211 1.0 10.0 0.15 0.20 0.17 94 1005.5
20240228121554 52 219 3.0 10.0 0.09 0.14 0.11 94 1005.9
20240228120045 51 150 1.0 7.0 0.03 0.08 0.05 94 1006.1
20240228114542 51 285 2.0 8.0 0.01 0.06 0.03 94 1006.0
20240228113039 51 197 4.0 11.0 0.00 0.05 0.02 94 1006.1
20240228111533 51 204 3.0 8.0 0.00 0.05 0.02 94 1006.3
20240228110031 51 202 2.0 10.0 0.00 0.05 0.02 94 1006.6
20240228104535 51 187 1.0 9.0 0.00 0.05 0.02 94 1006.6
20240228103029 51 225 3.0 9.0 0.00 0.05 0.02 94 1006.7
20240228101527 51 196 2.0 8.0 0.00 0.05 0.02 94 1006.9
20240228100024 51 216 3.0 10.0 0.00 0.05 0.02 94 1007.0
20240228094524 51 159 3.0 9.0 0.00 0.05 0.02 94 1007.2
20240228093022 51 219 4.0 12.0 0.00 0.05 0.02 94 1007.4
20240228091520 51 195 3.0 10.0 0.01 0.05 0.02 94 1007.3
20240228090019 51 196 3.0 9.0 0.01 0.05 0.02 93 1007.3
20240228084517 51 192 2.0 9.0 0.01 0.05 0.02 93 1007.2
20240228083027 51 216 3.0 7.0 0.01 0.05 0.02 93 1007.6
20240228081514 51 197 2.0 9.0 0.00 0.04 0.01 93 1007.8
20240228080010 51 186 3.0 8.0 0.00 0.04 0.01 93 1008.0
20240228074510 51 212 2.0 7.0 0.00 0.04 0.01 93 1008.1
20240228073011 51 208 5.0 10.0 0.00 0.04 0.01 93 1008.3
20240228071506 51 178 5.0 11.0 0.00 0.04 0.01 93 1008.3
20240228070006 51 138 3.0 7.0 0.00 0.04 0.01 93 1008.4
20240228064602 51 273 4.0 11.0 0.01 0.04 0.01 93 1008.2
20240228063056 51 216 2.0 14.0 0.01 0.04 0.01 93 1008.4
20240228061553 51 209 2.0 15.0 0.01 0.04 0.01 93 1008.5
20240228060052 51 223 4.0 10.0 0.01 0.04 0.01 93 1008.5
20240228054547 51 203 4.0 10.0 0.00 0.03 0.00 93 1008.6
20240228053044 51 213 3.0 12.0 0.00 0.03 0.00 93 1008.7
20240228051543 51 155 3.0 14.0 0.00 0.03 0.00 93 1009.0
20240228050038 51 207 3.0 9.0 0.01 0.03 0.03 93 1009.1